sensor_id;sensor_type;location;lat;lon;timestamp;P1;durP1;ratioP1;P2;durP2;ratioP2
52456;SDS011;38369;52.840;7.082;2023-04-03T00:01:02;8.38;;;2.38;;
52456;SDS011;38369;52.840;7.082;2023-04-03T00:03:28;3.20;;;1.98;;
52456;SDS011;38369;52.840;7.082;2023-04-03T00:05:55;3.58;;;1.98;;
52456;SDS011;38369;52.840;7.082;2023-04-03T00:08:21;4.47;;;1.77;;
52456;SDS011;38369;52.840;7.082;2023-04-03T00:10:47;3.90;;;1.92;;
52456;SDS011;38369;52.840;7.082;2023-04-03T00:13:14;3.47;;;2.05;;
52456;SDS011;38369;52.840;7.082;2023-04-03T00:15:40;2.95;;;1.95;;
52456;SDS011;38369;52.840;7.082;2023-04-03T00:18:06;6.15;;;2.28;;
52456;SDS011;38369;52.840;7.082;2023-04-03T00:20:33;2.78;;;1.75;;
52456;SDS011;38369;52.840;7.082;2023-04-03T00:22:59;6.22;;;1.88;;
52456;SDS011;38369;52.840;7.082;2023-04-03T00:25:25;3.47;;;1.98;;
52456;SDS011;38369;52.840;7.082;2023-04-03T00:27:51;4.50;;;1.88;;
52456;SDS011;38369;52.840;7.082;2023-04-03T00:30:18;4.35;;;2.47;;
52456;SDS011;38369;52.840;7.082;2023-04-03T00:32:45;5.70;;;2.03;;
52456;SDS011;38369;52.840;7.082;2023-04-03T00:35:11;4.05;;;1.85;;
52456;SDS011;38369;52.840;7.082;2023-04-03T00:37:40;3.78;;;2.85;;
52456;SDS011;38369;52.840;7.082;2023-04-03T00:40:07;10.20;;;2.45;;
52456;SDS011;38369;52.840;7.082;2023-04-03T00:42:33;5.13;;;2.50;;
52456;SDS011;38369;52.840;7.082;2023-04-03T00:47:25;4.90;;;2.00;;
52456;SDS011;38369;52.840;7.082;2023-04-03T00:49:52;5.80;;;2.50;;
52456;SDS011;38369;52.840;7.082;2023-04-03T00:52:20;5.82;;;2.70;;
52456;SDS011;38369;52.840;7.082;2023-04-03T00:54:47;4.38;;;1.90;;
52456;SDS011;38369;52.840;7.082;2023-04-03T00:57:14;5.28;;;2.22;;
52456;SDS011;38369;52.840;7.082;2023-04-03T00:59:52;4.72;;;2.60;;
52456;SDS011;38369;52.840;7.082;2023-04-03T01:02:21;5.57;;;2.50;;
52456;SDS011;38369;52.840;7.082;2023-04-03T01:04:47;6.43;;;2.40;;
52456;SDS011;38369;52.840;7.082;2023-04-03T01:07:17;3.55;;;2.35;;
52456;SDS011;38369;52.840;7.082;2023-04-03T01:09:44;3.20;;;2.08;;
52456;SDS011;38369;52.840;7.082;2023-04-03T01:14:50;4.47;;;2.42;;
52456;SDS011;38369;52.840;7.082;2023-04-03T01:17:59;4.88;;;2.47;;
52456;SDS011;38369;52.840;7.082;2023-04-03T01:22:56;4.78;;;2.50;;
52456;SDS011;38369;52.840;7.082;2023-04-03T01:25:25;4.47;;;2.60;;
52456;SDS011;38369;52.840;7.082;2023-04-03T01:27:51;5.80;;;2.30;;
52456;SDS011;38369;52.840;7.082;2023-04-03T01:30:18;4.97;;;2.40;;
52456;SDS011;38369;52.840;7.082;2023-04-03T01:32:45;6.35;;;2.30;;
52456;SDS011;38369;52.840;7.082;2023-04-03T01:35:11;7.47;;;2.50;;
52456;SDS011;38369;52.840;7.082;2023-04-03T01:37:37;6.40;;;2.85;;
52456;SDS011;38369;52.840;7.082;2023-04-03T01:40:03;3.65;;;2.42;;
52456;SDS011;38369;52.840;7.082;2023-04-03T01:42:30;5.32;;;2.85;;
52456;SDS011;38369;52.840;7.082;2023-04-03T01:44:56;4.88;;;2.20;;
52456;SDS011;38369;52.840;7.082;2023-04-03T01:47:22;6.20;;;3.03;;
52456;SDS011;38369;52.840;7.082;2023-04-03T01:49:49;5.70;;;2.33;;
52456;SDS011;38369;52.840;7.082;2023-04-03T01:52:15;6.28;;;2.70;;
52456;SDS011;38369;52.840;7.082;2023-04-03T01:54:41;5.45;;;2.63;;
52456;SDS011;38369;52.840;7.082;2023-04-03T01:57:07;5.68;;;2.50;;
52456;SDS011;38369;52.840;7.082;2023-04-03T01:59:33;4.93;;;3.13;;
52456;SDS011;38369;52.840;7.082;2023-04-03T02:01:59;4.88;;;2.58;;
52456;SDS011;38369;52.840;7.082;2023-04-03T02:04:25;7.32;;;3.22;;
52456;SDS011;38369;52.840;7.082;2023-04-03T02:06:51;5.38;;;3.10;;
52456;SDS011;38369;52.840;7.082;2023-04-03T02:09:17;4.28;;;2.55;;
52456;SDS011;38369;52.840;7.082;2023-04-03T02:11:43;6.15;;;2.83;;
52456;SDS011;38369;52.840;7.082;2023-04-03T02:14:09;7.30;;;3.15;;
52456;SDS011;38369;52.840;7.082;2023-04-03T02:16:35;4.93;;;2.60;;
52456;SDS011;38369;52.840;7.082;2023-04-03T02:19:01;3.80;;;2.22;;
52456;SDS011;38369;52.840;7.082;2023-04-03T02:21:27;5.45;;;3.13;;
52456;SDS011;38369;52.840;7.082;2023-04-03T02:23:54;4.43;;;2.22;;
52456;SDS011;38369;52.840;7.082;2023-04-03T02:26:20;6.38;;;3.03;;
52456;SDS011;38369;52.840;7.082;2023-04-03T02:28:46;7.28;;;3.03;;
52456;SDS011;38369;52.840;7.082;2023-04-03T02:31:12;4.75;;;2.72;;
52456;SDS011;38369;52.840;7.082;2023-04-03T02:33:38;6.97;;;2.95;;
52456;SDS011;38369;52.840;7.082;2023-04-03T02:36:05;5.18;;;2.72;;
52456;SDS011;38369;52.840;7.082;2023-04-03T02:38:31;7.15;;;2.90;;
52456;SDS011;38369;52.840;7.082;2023-04-03T02:41:02;7.50;;;2.92;;
52456;SDS011;38369;52.840;7.082;2023-04-03T02:43:28;7.40;;;3.13;;
52456;SDS011;38369;52.840;7.082;2023-04-03T02:45:54;5.22;;;3.05;;
52456;SDS011;38369;52.840;7.082;2023-04-03T02:48:20;7.00;;;3.08;;
52456;SDS011;38369;52.840;7.082;2023-04-03T02:50:46;6.25;;;3.08;;
52456;SDS011;38369;52.840;7.082;2023-04-03T02:53:12;10.00;;;3.67;;
52456;SDS011;38369;52.840;7.082;2023-04-03T02:55:38;4.53;;;2.95;;
52456;SDS011;38369;52.840;7.082;2023-04-03T02:58:04;8.32;;;3.20;;
52456;SDS011;38369;52.840;7.082;2023-04-03T03:00:31;5.97;;;2.72;;
52456;SDS011;38369;52.840;7.082;2023-04-03T03:02:57;5.50;;;2.88;;
52456;SDS011;38369;52.840;7.082;2023-04-03T03:05:23;7.82;;;3.15;;
52456;SDS011;38369;52.840;7.082;2023-04-03T03:07:49;3.50;;;2.58;;
52456;SDS011;38369;52.840;7.082;2023-04-03T03:10:15;7.15;;;2.92;;
52456;SDS011;38369;52.840;7.082;2023-04-03T03:12:41;7.72;;;3.47;;
52456;SDS011;38369;52.840;7.082;2023-04-03T03:15:07;5.75;;;3.70;;
52456;SDS011;38369;52.840;7.082;2023-04-03T03:17:34;8.57;;;3.55;;
52456;SDS011;38369;52.840;7.082;2023-04-03T03:20:01;5.38;;;2.85;;
52456;SDS011;38369;52.840;7.082;2023-04-03T03:22:27;8.85;;;3.55;;
52456;SDS011;38369;52.840;7.082;2023-04-03T03:24:54;6.70;;;3.88;;
52456;SDS011;38369;52.840;7.082;2023-04-03T03:27:20;7.13;;;4.10;;
52456;SDS011;38369;52.840;7.082;2023-04-03T03:29:46;5.35;;;2.85;;
52456;SDS011;38369;52.840;7.082;2023-04-03T03:32:12;5.57;;;3.30;;
52456;SDS011;38369;52.840;7.082;2023-04-03T03:34:38;4.90;;;2.67;;
52456;SDS011;38369;52.840;7.082;2023-04-03T03:37:04;8.77;;;3.42;;
52456;SDS011;38369;52.840;7.082;2023-04-03T03:39:30;11.10;;;3.33;;
52456;SDS011;38369;52.840;7.082;2023-04-03T03:41:56;6.70;;;3.17;;
52456;SDS011;38369;52.840;7.082;2023-04-03T03:44:22;8.90;;;3.58;;
52456;SDS011;38369;52.840;7.082;2023-04-03T03:46:48;4.28;;;2.65;;
52456;SDS011;38369;52.840;7.082;2023-04-03T03:49:14;7.82;;;3.90;;
52456;SDS011;38369;52.840;7.082;2023-04-03T03:51:41;9.35;;;3.33;;
52456;SDS011;38369;52.840;7.082;2023-04-03T03:54:07;8.27;;;3.58;;
52456;SDS011;38369;52.840;7.082;2023-04-03T03:56:33;5.70;;;2.88;;
52456;SDS011;38369;52.840;7.082;2023-04-03T03:58:59;7.25;;;3.42;;
52456;SDS011;38369;52.840;7.082;2023-04-03T04:01:25;7.75;;;3.70;;
52456;SDS011;38369;52.840;7.082;2023-04-03T04:03:51;5.63;;;3.30;;
52456;SDS011;38369;52.840;7.082;2023-04-03T04:06:19;5.32;;;2.75;;
52456;SDS011;38369;52.840;7.082;2023-04-03T04:08:45;6.38;;;3.20;;
52456;SDS011;38369;52.840;7.082;2023-04-03T04:11:11;10.50;;;3.05;;
52456;SDS011;38369;52.840;7.082;2023-04-03T04:13:37;5.43;;;3.15;;
52456;SDS011;38369;52.840;7.082;2023-04-03T04:16:04;6.20;;;3.72;;
52456;SDS011;38369;52.840;7.082;2023-04-03T04:18:30;8.07;;;3.05;;
52456;SDS011;38369;52.840;7.082;2023-04-03T04:20:56;9.05;;;3.97;;
52456;SDS011;38369;52.840;7.082;2023-04-03T04:23:22;8.98;;;3.03;;
52456;SDS011;38369;52.840;7.082;2023-04-03T04:25:48;5.88;;;2.90;;
52456;SDS011;38369;52.840;7.082;2023-04-03T04:28:15;4.72;;;3.30;;
52456;SDS011;38369;52.840;7.082;2023-04-03T04:30:41;11.07;;;3.80;;
52456;SDS011;38369;52.840;7.082;2023-04-03T04:33:07;5.80;;;3.30;;
52456;SDS011;38369;52.840;7.082;2023-04-03T04:35:33;7.68;;;3.15;;
52456;SDS011;38369;52.840;7.082;2023-04-03T04:37:59;5.68;;;3.45;;
52456;SDS011;38369;52.840;7.082;2023-04-03T04:40:26;10.98;;;3.78;;
52456;SDS011;38369;52.840;7.082;2023-04-03T04:42:52;5.88;;;3.40;;
52456;SDS011;38369;52.840;7.082;2023-04-03T04:45:18;5.85;;;3.10;;
52456;SDS011;38369;52.840;7.082;2023-04-03T04:47:44;9.88;;;3.83;;
52456;SDS011;38369;52.840;7.082;2023-04-03T04:50:10;5.95;;;3.13;;
52456;SDS011;38369;52.840;7.082;2023-04-03T04:52:37;6.00;;;3.15;;
52456;SDS011;38369;52.840;7.082;2023-04-03T04:55:03;8.27;;;3.88;;
52456;SDS011;38369;52.840;7.082;2023-04-03T04:57:30;8.43;;;3.78;;
52456;SDS011;38369;52.840;7.082;2023-04-03T04:59:56;7.03;;;3.65;;
52456;SDS011;38369;52.840;7.082;2023-04-03T05:02:22;8.07;;;4.43;;
52456;SDS011;38369;52.840;7.082;2023-04-03T05:04:48;5.95;;;4.00;;
52456;SDS011;38369;52.840;7.082;2023-04-03T05:07:15;9.80;;;3.72;;
52456;SDS011;38369;52.840;7.082;2023-04-03T05:09:41;5.70;;;3.17;;
52456;SDS011;38369;52.840;7.082;2023-04-03T05:12:07;5.00;;;3.33;;
52456;SDS011;38369;52.840;7.082;2023-04-03T05:14:33;8.57;;;3.83;;
52456;SDS011;38369;52.840;7.082;2023-04-03T05:16:59;7.95;;;3.15;;
52456;SDS011;38369;52.840;7.082;2023-04-03T05:19:26;7.70;;;3.92;;
52456;SDS011;38369;52.840;7.082;2023-04-03T05:21:52;4.72;;;3.33;;
52456;SDS011;38369;52.840;7.082;2023-04-03T05:24:18;7.28;;;4.05;;
52456;SDS011;38369;52.840;7.082;2023-04-03T05:26:44;8.98;;;3.40;;
52456;SDS011;38369;52.840;7.082;2023-04-03T05:29:10;8.13;;;3.60;;
52456;SDS011;38369;52.840;7.082;2023-04-03T05:31:36;9.07;;;3.40;;
52456;SDS011;38369;52.840;7.082;2023-04-03T05:34:02;9.18;;;3.47;;
52456;SDS011;38369;52.840;7.082;2023-04-03T05:36:28;6.03;;;3.22;;
52456;SDS011;38369;52.840;7.082;2023-04-03T05:38:54;14.45;;;5.53;;
52456;SDS011;38369;52.840;7.082;2023-04-03T05:41:21;8.48;;;3.67;;
52456;SDS011;38369;52.840;7.082;2023-04-03T05:43:47;7.18;;;3.70;;
52456;SDS011;38369;52.840;7.082;2023-04-03T05:46:18;7.68;;;4.28;;
52456;SDS011;38369;52.840;7.082;2023-04-03T05:48:44;11.98;;;4.43;;
52456;SDS011;38369;52.840;7.082;2023-04-03T05:51:33;5.63;;;3.60;;
52456;SDS011;38369;52.840;7.082;2023-04-03T05:54:11;12.73;;;3.47;;
52456;SDS011;38369;52.840;7.082;2023-04-03T05:56:38;7.03;;;3.70;;
52456;SDS011;38369;52.840;7.082;2023-04-03T05:59:04;6.75;;;3.60;;
52456;SDS011;38369;52.840;7.082;2023-04-03T06:01:30;7.70;;;4.07;;
52456;SDS011;38369;52.840;7.082;2023-04-03T06:03:56;7.85;;;4.28;;
52456;SDS011;38369;52.840;7.082;2023-04-03T06:06:23;8.07;;;3.80;;
52456;SDS011;38369;52.840;7.082;2023-04-03T06:08:49;10.20;;;3.78;;
52456;SDS011;38369;52.840;7.082;2023-04-03T06:11:16;10.18;;;3.88;;
52456;SDS011;38369;52.840;7.082;2023-04-03T06:13:42;6.20;;;3.30;;
52456;SDS011;38369;52.840;7.082;2023-04-03T06:16:09;8.38;;;3.75;;
52456;SDS011;38369;52.840;7.082;2023-04-03T06:18:40;5.60;;;4.07;;
52456;SDS011;38369;52.840;7.082;2023-04-03T06:21:06;5.70;;;3.80;;
52456;SDS011;38369;52.840;7.082;2023-04-03T06:23:33;5.35;;;3.53;;
52456;SDS011;38369;52.840;7.082;2023-04-03T06:25:59;7.68;;;4.25;;
52456;SDS011;38369;52.840;7.082;2023-04-03T06:28:25;8.10;;;3.70;;
52456;SDS011;38369;52.840;7.082;2023-04-03T06:30:51;8.10;;;3.75;;
52456;SDS011;38369;52.840;7.082;2023-04-03T06:33:17;8.77;;;3.47;;
52456;SDS011;38369;52.840;7.082;2023-04-03T06:35:44;6.13;;;3.42;;
52456;SDS011;38369;52.840;7.082;2023-04-03T06:38:11;6.13;;;3.75;;
52456;SDS011;38369;52.840;7.082;2023-04-03T06:40:37;16.08;;;4.70;;
52456;SDS011;38369;52.840;7.082;2023-04-03T06:43:03;7.82;;;3.70;;
52456;SDS011;38369;52.840;7.082;2023-04-03T06:45:30;5.63;;;4.10;;
52456;SDS011;38369;52.840;7.082;2023-04-03T06:47:56;7.70;;;4.40;;
52456;SDS011;38369;52.840;7.082;2023-04-03T06:50:22;7.53;;;3.45;;
52456;SDS011;38369;52.840;7.082;2023-04-03T06:52:48;6.75;;;3.90;;
52456;SDS011;38369;52.840;7.082;2023-04-03T06:55:14;8.77;;;3.33;;
52456;SDS011;38369;52.840;7.082;2023-04-03T06:57:40;5.75;;;3.58;;
52456;SDS011;38369;52.840;7.082;2023-04-03T07:00:07;7.00;;;3.42;;
52456;SDS011;38369;52.840;7.082;2023-04-03T07:02:34;7.68;;;3.45;;
52456;SDS011;38369;52.840;7.082;2023-04-03T07:05:00;6.55;;;3.10;;
52456;SDS011;38369;52.840;7.082;2023-04-03T07:07:26;6.18;;;3.40;;
52456;SDS011;38369;52.840;7.082;2023-04-03T07:09:52;5.75;;;3.42;;
52456;SDS011;38369;52.840;7.082;2023-04-03T07:12:19;12.20;;;3.28;;
52456;SDS011;38369;52.840;7.082;2023-04-03T07:14:45;8.20;;;3.47;;
52456;SDS011;38369;52.840;7.082;2023-04-03T07:17:11;6.25;;;3.35;;
52456;SDS011;38369;52.840;7.082;2023-04-03T07:19:38;10.30;;;3.35;;
52456;SDS011;38369;52.840;7.082;2023-04-03T07:22:04;4.43;;;3.40;;
52456;SDS011;38369;52.840;7.082;2023-04-03T07:24:30;5.07;;;2.83;;
52456;SDS011;38369;52.840;7.082;2023-04-03T07:26:56;6.95;;;3.15;;
52456;SDS011;38369;52.840;7.082;2023-04-03T07:29:22;7.00;;;3.13;;
52456;SDS011;38369;52.840;7.082;2023-04-03T07:31:48;7.35;;;2.67;;
52456;SDS011;38369;52.840;7.082;2023-04-03T07:34:15;5.68;;;2.15;;
52456;SDS011;38369;52.840;7.082;2023-04-03T07:36:41;3.88;;;2.88;;
52456;SDS011;38369;52.840;7.082;2023-04-03T07:39:07;7.40;;;3.20;;
52456;SDS011;38369;52.840;7.082;2023-04-03T07:41:33;4.25;;;2.80;;
52456;SDS011;38369;52.840;7.082;2023-04-03T07:43:59;7.20;;;2.72;;
52456;SDS011;38369;52.840;7.082;2023-04-03T07:46:25;6.40;;;2.78;;
52456;SDS011;38369;52.840;7.082;2023-04-03T07:48:51;6.82;;;2.65;;
52456;SDS011;38369;52.840;7.082;2023-04-03T07:51:18;6.15;;;2.58;;
52456;SDS011;38369;52.840;7.082;2023-04-03T07:53:44;6.55;;;2.65;;
52456;SDS011;38369;52.840;7.082;2023-04-03T07:56:11;5.78;;;2.65;;
52456;SDS011;38369;52.840;7.082;2023-04-03T07:58:37;8.07;;;2.22;;
52456;SDS011;38369;52.840;7.082;2023-04-03T08:01:03;6.70;;;2.58;;
52456;SDS011;38369;52.840;7.082;2023-04-03T08:03:29;5.40;;;1.85;;
52456;SDS011;38369;52.840;7.082;2023-04-03T08:06:00;9.77;;;2.50;;
52456;SDS011;38369;52.840;7.082;2023-04-03T08:08:27;4.53;;;2.03;;
52456;SDS011;38369;52.840;7.082;2023-04-03T08:10:54;2.92;;;1.80;;
52456;SDS011;38369;52.840;7.082;2023-04-03T08:13:21;3.25;;;1.90;;
52456;SDS011;38369;52.840;7.082;2023-04-03T08:15:47;5.05;;;1.90;;
52456;SDS011;38369;52.840;7.082;2023-04-03T08:18:13;4.40;;;1.95;;
52456;SDS011;38369;52.840;7.082;2023-04-03T08:20:40;4.18;;;2.15;;
52456;SDS011;38369;52.840;7.082;2023-04-03T08:23:06;2.72;;;1.80;;
52456;SDS011;38369;52.840;7.082;2023-04-03T08:25:33;2.75;;;1.90;;
52456;SDS011;38369;52.840;7.082;2023-04-03T08:27:59;3.03;;;1.75;;
52456;SDS011;38369;52.840;7.082;2023-04-03T08:30:27;6.07;;;2.08;;
52456;SDS011;38369;52.840;7.082;2023-04-03T08:32:53;4.53;;;1.98;;
52456;SDS011;38369;52.840;7.082;2023-04-03T08:35:19;5.75;;;2.10;;
52456;SDS011;38369;52.840;7.082;2023-04-03T08:37:45;3.72;;;1.77;;
52456;SDS011;38369;52.840;7.082;2023-04-03T08:40:15;4.63;;;2.22;;
52456;SDS011;38369;52.840;7.082;2023-04-03T08:45:15;4.70;;;2.10;;
52456;SDS011;38369;52.840;7.082;2023-04-03T08:50:12;5.60;;;2.58;;
52456;SDS011;38369;52.840;7.082;2023-04-03T08:52:41;5.78;;;1.95;;
52456;SDS011;38369;52.840;7.082;2023-04-03T09:03:16;4.43;;;1.80;;
52456;SDS011;38369;52.840;7.082;2023-04-03T09:08:22;3.95;;;1.73;;
52456;SDS011;38369;52.840;7.082;2023-04-03T09:11:37;3.58;;;1.70;;
52456;SDS011;38369;52.840;7.082;2023-04-03T09:13:45;3.58;;;1.70;;
52456;SDS011;38369;52.840;7.082;2023-04-03T09:16:38;4.75;;;1.75;;
52456;SDS011;38369;52.840;7.082;2023-04-03T09:21:46;2.20;;;1.77;;
52456;SDS011;38369;52.840;7.082;2023-04-03T09:24:12;3.45;;;1.77;;
52456;SDS011;38369;52.840;7.082;2023-04-03T09:26:48;6.63;;;1.60;;
52456;SDS011;38369;52.840;7.082;2023-04-03T09:29:26;3.17;;;1.50;;
52456;SDS011;38369;52.840;7.082;2023-04-03T09:31:56;3.05;;;1.38;;
52456;SDS011;38369;52.840;7.082;2023-04-03T09:34:25;3.20;;;1.60;;
52456;SDS011;38369;52.840;7.082;2023-04-03T09:36:55;3.95;;;1.70;;
52456;SDS011;38369;52.840;7.082;2023-04-03T09:39:26;5.07;;;1.70;;
52456;SDS011;38369;52.840;7.082;2023-04-03T09:44:25;2.72;;;1.52;;
52456;SDS011;38369;52.840;7.082;2023-04-03T09:46:52;3.15;;;1.88;;
52456;SDS011;38369;52.840;7.082;2023-04-03T09:49:18;2.90;;;1.60;;
52456;SDS011;38369;52.840;7.082;2023-04-03T09:51:44;3.35;;;1.50;;
52456;SDS011;38369;52.840;7.082;2023-04-03T09:56:55;4.00;;;1.50;;
52456;SDS011;38369;52.840;7.082;2023-04-03T09:59:23;7.97;;;1.65;;
52456;SDS011;38369;52.840;7.082;2023-04-03T10:04:48;2.45;;;1.48;;
52456;SDS011;38369;52.840;7.082;2023-04-03T10:09:56;4.18;;;1.70;;
52456;SDS011;38369;52.840;7.082;2023-04-03T10:12:24;3.95;;;1.45;;
52456;SDS011;38369;52.840;7.082;2023-04-03T10:15:00;2.78;;;1.58;;
52456;SDS011;38369;52.840;7.082;2023-04-03T10:19:53;4.03;;;1.33;;
52456;SDS011;38369;52.840;7.082;2023-04-03T10:22:35;4.47;;;1.90;;
52456;SDS011;38369;52.840;7.082;2023-04-03T10:33:13;3.25;;;1.45;;
52456;SDS011;38369;52.840;7.082;2023-04-03T10:40:47;3.10;;;1.55;;
52456;SDS011;38369;52.840;7.082;2023-04-03T10:45:53;4.93;;;1.67;;
52456;SDS011;38369;52.840;7.082;2023-04-03T10:54:00;4.70;;;1.40;;
52456;SDS011;38369;52.840;7.082;2023-04-03T10:56:41;2.78;;;1.20;;
52456;SDS011;38369;52.840;7.082;2023-04-03T11:01:38;4.32;;;1.40;;
52456;SDS011;38369;52.840;7.082;2023-04-03T11:04:05;2.72;;;1.00;;
52456;SDS011;38369;52.840;7.082;2023-04-03T11:06:35;2.53;;;1.10;;
52456;SDS011;38369;52.840;7.082;2023-04-03T11:09:07;2.00;;;1.10;;
52456;SDS011;38369;52.840;7.082;2023-04-03T11:11:38;4.22;;;1.27;;
52456;SDS011;38369;52.840;7.082;2023-04-03T11:16:53;4.05;;;1.30;;
52456;SDS011;38369;52.840;7.082;2023-04-03T11:19:39;3.35;;;1.17;;
52456;SDS011;38369;52.840;7.082;2023-04-03T11:22:13;5.75;;;1.35;;
52456;SDS011;38369;52.840;7.082;2023-04-03T11:24:42;2.67;;;1.10;;
52456;SDS011;38369;52.840;7.082;2023-04-03T11:27:15;1.08;;;0.80;;
52456;SDS011;38369;52.840;7.082;2023-04-03T11:29:43;3.42;;;1.05;;
52456;SDS011;38369;52.840;7.082;2023-04-03T11:34:49;1.52;;;0.90;;
52456;SDS011;38369;52.840;7.082;2023-04-03T11:37:27;3.60;;;1.40;;
52456;SDS011;38369;52.840;7.082;2023-04-03T11:39:56;4.57;;;1.27;;
52456;SDS011;38369;52.840;7.082;2023-04-03T11:44:49;3.70;;;1.20;;
52456;SDS011;38369;52.840;7.082;2023-04-03T11:50:02;3.50;;;1.30;;
52456;SDS011;38369;52.840;7.082;2023-04-03T12:16:06;4.72;;;1.42;;
52456;SDS011;38369;52.840;7.082;2023-04-03T12:18:41;3.95;;;1.02;;
52456;SDS011;38369;52.840;7.082;2023-04-03T12:21:07;2.97;;;1.17;;
52456;SDS011;38369;52.840;7.082;2023-04-03T12:23:35;1.98;;;1.02;;
52456;SDS011;38369;52.840;7.082;2023-04-03T12:26:04;2.78;;;1.10;;
52456;SDS011;38369;52.840;7.082;2023-04-03T12:28:38;2.55;;;0.98;;
52456;SDS011;38369;52.840;7.082;2023-04-03T12:31:04;5.57;;;1.38;;
52456;SDS011;38369;52.840;7.082;2023-04-03T12:33:36;3.13;;;1.55;;
52456;SDS011;38369;52.840;7.082;2023-04-03T12:36:13;5.60;;;1.70;;
52456;SDS011;38369;52.840;7.082;2023-04-03T12:41:31;3.47;;;1.52;;
52456;SDS011;38369;52.840;7.082;2023-04-03T12:44:16;3.72;;;1.30;;
52456;SDS011;38369;52.840;7.082;2023-04-03T12:46:47;4.43;;;1.20;;
52456;SDS011;38369;52.840;7.082;2023-04-03T12:51:52;3.67;;;1.10;;
52456;SDS011;38369;52.840;7.082;2023-04-03T12:54:38;2.55;;;1.05;;
52456;SDS011;38369;52.840;7.082;2023-04-03T12:57:21;2.35;;;1.20;;
52456;SDS011;38369;52.840;7.082;2023-04-03T12:59:47;3.00;;;1.60;;
52456;SDS011;38369;52.840;7.082;2023-04-03T13:02:21;5.88;;;1.73;;
52456;SDS011;38369;52.840;7.082;2023-04-03T13:04:49;2.53;;;1.13;;
52456;SDS011;38369;52.840;7.082;2023-04-03T13:07:23;2.55;;;1.02;;
52456;SDS011;38369;52.840;7.082;2023-04-03T13:10:09;2.63;;;1.02;;
52456;SDS011;38369;52.840;7.082;2023-04-03T13:15:13;3.30;;;1.40;;
52456;SDS011;38369;52.840;7.082;2023-04-03T13:17:41;2.63;;;1.08;;
52456;SDS011;38369;52.840;7.082;2023-04-03T13:20:13;2.45;;;1.00;;
52456;SDS011;38369;52.840;7.082;2023-04-03T13:22:42;2.33;;;1.15;;
52456;SDS011;38369;52.840;7.082;2023-04-03T13:25:11;5.05;;;1.50;;
52456;SDS011;38369;52.840;7.082;2023-04-03T13:27:38;2.22;;;1.10;;
52456;SDS011;38369;52.840;7.082;2023-04-03T13:30:17;9.27;;;2.08;;
52456;SDS011;38369;52.840;7.082;2023-04-03T13:32:44;2.15;;;1.35;;
52456;SDS011;38369;52.840;7.082;2023-04-03T13:38:06;1.85;;;1.00;;
52456;SDS011;38369;52.840;7.082;2023-04-03T13:40:33;2.63;;;1.00;;
52456;SDS011;38369;52.840;7.082;2023-04-03T13:43:04;3.80;;;1.40;;
52456;SDS011;38369;52.840;7.082;2023-04-03T13:45:31;2.05;;;0.90;;
52456;SDS011;38369;52.840;7.082;2023-04-03T13:48:14;2.88;;;1.05;;
52456;SDS011;38369;52.840;7.082;2023-04-03T13:53:20;2.80;;;1.55;;
52456;SDS011;38369;52.840;7.082;2023-04-03T13:55:54;6.45;;;1.67;;
52456;SDS011;38369;52.840;7.082;2023-04-03T13:58:24;2.92;;;1.10;;
52456;SDS011;38369;52.840;7.082;2023-04-03T14:00:51;4.15;;;1.67;;
52456;SDS011;38369;52.840;7.082;2023-04-03T14:05:47;4.22;;;1.50;;
52456;SDS011;38369;52.840;7.082;2023-04-03T14:08:13;2.53;;;1.30;;
52456;SDS011;38369;52.840;7.082;2023-04-03T14:10:39;4.35;;;2.00;;
52456;SDS011;38369;52.840;7.082;2023-04-03T14:13:08;4.53;;;1.50;;
52456;SDS011;38369;52.840;7.082;2023-04-03T14:15:35;3.92;;;1.48;;
52456;SDS011;38369;52.840;7.082;2023-04-03T14:18:01;4.88;;;1.20;;
52456;SDS011;38369;52.840;7.082;2023-04-03T14:20:27;2.20;;;1.30;;
52456;SDS011;38369;52.840;7.082;2023-04-03T14:22:53;3.05;;;1.40;;
52456;SDS011;38369;52.840;7.082;2023-04-03T14:25:20;6.32;;;1.40;;
52456;SDS011;38369;52.840;7.082;2023-04-03T14:27:48;2.80;;;1.50;;
52456;SDS011;38369;52.840;7.082;2023-04-03T14:30:25;3.83;;;2.45;;
52456;SDS011;38369;52.840;7.082;2023-04-03T14:32:51;4.15;;;1.40;;
52456;SDS011;38369;52.840;7.082;2023-04-03T14:35:17;4.72;;;1.80;;
52456;SDS011;38369;52.840;7.082;2023-04-03T14:37:44;3.15;;;1.38;;
52456;SDS011;38369;52.840;7.082;2023-04-03T14:40:15;2.45;;;1.33;;
52456;SDS011;38369;52.840;7.082;2023-04-03T14:42:41;8.88;;;1.10;;
52456;SDS011;38369;52.840;7.082;2023-04-03T14:45:09;2.45;;;1.30;;
52456;SDS011;38369;52.840;7.082;2023-04-03T14:47:37;3.40;;;1.17;;
52456;SDS011;38369;52.840;7.082;2023-04-03T14:50:06;4.38;;;1.35;;
52456;SDS011;38369;52.840;7.082;2023-04-03T14:52:34;3.67;;;2.08;;
52456;SDS011;38369;52.840;7.082;2023-04-03T14:55:01;2.10;;;1.00;;
52456;SDS011;38369;52.840;7.082;2023-04-03T14:57:28;2.83;;;1.30;;
52456;SDS011;38369;52.840;7.082;2023-04-03T14:59:55;3.50;;;1.33;;
52456;SDS011;38369;52.840;7.082;2023-04-03T15:02:26;3.38;;;1.38;;
52456;SDS011;38369;52.840;7.082;2023-04-03T15:07:18;3.67;;;1.40;;
52456;SDS011;38369;52.840;7.082;2023-04-03T15:09:44;3.35;;;1.35;;
52456;SDS011;38369;52.840;7.082;2023-04-03T15:12:10;3.58;;;1.52;;
52456;SDS011;38369;52.840;7.082;2023-04-03T15:14:36;6.82;;;1.73;;
52456;SDS011;38369;52.840;7.082;2023-04-03T15:17:03;7.57;;;2.33;;
52456;SDS011;38369;52.840;7.082;2023-04-03T15:19:31;3.15;;;1.40;;
52456;SDS011;38369;52.840;7.082;2023-04-03T15:21:58;3.25;;;1.30;;
52456;SDS011;38369;52.840;7.082;2023-04-03T15:24:24;5.57;;;1.73;;
52456;SDS011;38369;52.840;7.082;2023-04-03T15:26:50;3.17;;;1.35;;
52456;SDS011;38369;52.840;7.082;2023-04-03T15:29:16;5.53;;;2.10;;
52456;SDS011;38369;52.840;7.082;2023-04-03T15:31:42;4.45;;;1.30;;
52456;SDS011;38369;52.840;7.082;2023-04-03T15:34:08;5.97;;;1.40;;
52456;SDS011;38369;52.840;7.082;2023-04-03T15:36:34;3.65;;;1.52;;
52456;SDS011;38369;52.840;7.082;2023-04-03T15:39:00;5.15;;;1.30;;
52456;SDS011;38369;52.840;7.082;2023-04-03T15:41:26;4.10;;;1.42;;
52456;SDS011;38369;52.840;7.082;2023-04-03T15:43:53;4.25;;;1.70;;
52456;SDS011;38369;52.840;7.082;2023-04-03T15:46:19;5.50;;;1.50;;
52456;SDS011;38369;52.840;7.082;2023-04-03T15:48:45;4.47;;;1.45;;
52456;SDS011;38369;52.840;7.082;2023-04-03T15:51:11;3.38;;;1.42;;
52456;SDS011;38369;52.840;7.082;2023-04-03T15:53:37;3.95;;;1.60;;
52456;SDS011;38369;52.840;7.082;2023-04-03T15:56:03;3.28;;;1.60;;
52456;SDS011;38369;52.840;7.082;2023-04-03T15:58:30;3.25;;;1.30;;
52456;SDS011;38369;52.840;7.082;2023-04-03T16:00:56;3.95;;;1.58;;
52456;SDS011;38369;52.840;7.082;2023-04-03T16:03:22;3.67;;;1.42;;
52456;SDS011;38369;52.840;7.082;2023-04-03T16:05:49;4.50;;;1.70;;
52456;SDS011;38369;52.840;7.082;2023-04-03T16:08:16;5.28;;;1.13;;
52456;SDS011;38369;52.840;7.082;2023-04-03T16:10:43;2.35;;;1.60;;
52456;SDS011;38369;52.840;7.082;2023-04-03T16:13:11;3.58;;;1.30;;
52456;SDS011;38369;52.840;7.082;2023-04-03T16:15:37;3.15;;;1.40;;
52456;SDS011;38369;52.840;7.082;2023-04-03T16:18:04;2.50;;;1.40;;
52456;SDS011;38369;52.840;7.082;2023-04-03T16:20:30;3.45;;;1.50;;
52456;SDS011;38369;52.840;7.082;2023-04-03T16:22:57;5.55;;;1.60;;
52456;SDS011;38369;52.840;7.082;2023-04-03T16:25:24;3.45;;;1.35;;
52456;SDS011;38369;52.840;7.082;2023-04-03T16:27:51;4.63;;;1.77;;
52456;SDS011;38369;52.840;7.082;2023-04-03T16:30:17;2.97;;;1.70;;
52456;SDS011;38369;52.840;7.082;2023-04-03T16:32:43;7.28;;;2.33;;
52456;SDS011;38369;52.840;7.082;2023-04-03T16:35:09;4.05;;;1.70;;
52456;SDS011;38369;52.840;7.082;2023-04-03T16:37:36;3.92;;;1.83;;
52456;SDS011;38369;52.840;7.082;2023-04-03T16:40:03;4.80;;;1.80;;
52456;SDS011;38369;52.840;7.082;2023-04-03T16:42:30;3.97;;;2.00;;
52456;SDS011;38369;52.840;7.082;2023-04-03T16:44:56;4.07;;;1.95;;
52456;SDS011;38369;52.840;7.082;2023-04-03T16:47:23;4.70;;;1.60;;